sensor_id;sensor_type;location;lat;lon;timestamp;temperature;humidity
17726;DHT22;8983;53.156;17.960;2023-07-13T00:02:26;20.60;99.90
17726;DHT22;8983;53.156;17.960;2023-07-13T00:04:54;20.60;99.90
17726;DHT22;8983;53.156;17.960;2023-07-13T00:07:24;20.60;99.90
17726;DHT22;8983;53.156;17.960;2023-07-13T00:09:52;20.50;99.90
17726;DHT22;8983;53.156;17.960;2023-07-13T00:12:25;20.50;99.90
17726;DHT22;8983;53.156;17.960;2023-07-13T00:14:55;20.40;99.90
17726;DHT22;8983;53.156;17.960;2023-07-13T00:19:52;20.40;99.90
17726;DHT22;8983;53.156;17.960;2023-07-13T00:22:20;20.40;99.90
17726;DHT22;8983;53.156;17.960;2023-07-13T00:24:50;20.40;99.90
17726;DHT22;8983;53.156;17.960;2023-07-13T00:27:18;20.30;99.90
17726;DHT22;8983;53.156;17.960;2023-07-13T00:29:47;20.30;99.90
17726;DHT22;8983;53.156;17.960;2023-07-13T00:32:15;20.30;99.90
17726;DHT22;8983;53.156;17.960;2023-07-13T00:34:43;20.30;99.90
17726;DHT22;8983;53.156;17.960;2023-07-13T00:37:11;20.30;99.90
17726;DHT22;8983;53.156;17.960;2023-07-13T00:39:40;20.30;99.90
17726;DHT22;8983;53.156;17.960;2023-07-13T00:42:09;20.20;99.90
17726;DHT22;8983;53.156;17.960;2023-07-13T00:44:38;20.20;99.90
17726;DHT22;8983;53.156;17.960;2023-07-13T00:47:06;20.10;99.90
17726;DHT22;8983;53.156;17.960;2023-07-13T00:49:35;20.10;99.90
17726;DHT22;8983;53.156;17.960;2023-07-13T00:52:06;20.00;99.90
17726;DHT22;8983;53.156;17.960;2023-07-13T00:54:37;20.00;99.90
17726;DHT22;8983;53.156;17.960;2023-07-13T00:57:09;20.00;99.90
17726;DHT22;8983;53.156;17.960;2023-07-13T00:59:41;20.00;99.90
17726;DHT22;8983;53.156;17.960;2023-07-13T01:02:10;20.10;99.90
17726;DHT22;8983;53.156;17.960;2023-07-13T01:04:39;20.10;99.90
17726;DHT22;8983;53.156;17.960;2023-07-13T01:07:11;20.10;99.90
17726;DHT22;8983;53.156;17.960;2023-07-13T01:09:40;20.10;99.90
17726;DHT22;8983;53.156;17.960;2023-07-13T01:12:10;20.10;99.90
17726;DHT22;8983;53.156;17.960;2023-07-13T01:14:38;20.10;99.90
17726;DHT22;8983;53.156;17.960;2023-07-13T01:17:09;20.10;99.90
17726;DHT22;8983;53.156;17.960;2023-07-13T01:19:40;20.10;99.90
17726;DHT22;8983;53.156;17.960;2023-07-13T01:22:12;20.00;99.90
17726;DHT22;8983;53.156;17.960;2023-07-13T01:24:43;20.00;99.90
17726;DHT22;8983;53.156;17.960;2023-07-13T01:27:14;20.00;99.90
17726;DHT22;8983;53.156;17.960;2023-07-13T01:29:44;20.00;99.90
17726;DHT22;8983;53.156;17.960;2023-07-13T01:32:18;19.90;99.90
17726;DHT22;8983;53.156;17.960;2023-07-13T01:34:53;19.90;99.90
17726;DHT22;8983;53.156;17.960;2023-07-13T01:37:24;19.80;99.90
17726;DHT22;8983;53.156;17.960;2023-07-13T01:39:52;19.80;99.90
17726;DHT22;8983;53.156;17.960;2023-07-13T01:42:20;19.80;99.90
17726;DHT22;8983;53.156;17.960;2023-07-13T01:44:48;19.70;99.90
17726;DHT22;8983;53.156;17.960;2023-07-13T01:47:17;19.80;99.90
17726;DHT22;8983;53.156;17.960;2023-07-13T01:49:45;19.70;99.90
17726;DHT22;8983;53.156;17.960;2023-07-13T01:52:14;19.70;99.90
17726;DHT22;8983;53.156;17.960;2023-07-13T01:54:43;19.80;99.90
17726;DHT22;8983;53.156;17.960;2023-07-13T01:57:11;19.90;99.90
17726;DHT22;8983;53.156;17.960;2023-07-13T01:59:40;19.70;99.90
17726;DHT22;8983;53.156;17.960;2023-07-13T02:02:08;19.70;99.90
17726;DHT22;8983;53.156;17.960;2023-07-13T02:04:36;19.60;99.90
17726;DHT22;8983;53.156;17.960;2023-07-13T02:07:05;19.70;99.90
17726;DHT22;8983;53.156;17.960;2023-07-13T02:09:33;19.70;99.90
17726;DHT22;8983;53.156;17.960;2023-07-13T02:12:03;19.60;99.90
17726;DHT22;8983;53.156;17.960;2023-07-13T02:14:31;19.60;99.90
17726;DHT22;8983;53.156;17.960;2023-07-13T02:16:59;19.60;99.90
17726;DHT22;8983;53.156;17.960;2023-07-13T02:19:27;19.60;99.90
17726;DHT22;8983;53.156;17.960;2023-07-13T02:21:55;19.60;99.90
17726;DHT22;8983;53.156;17.960;2023-07-13T02:24:23;19.60;99.90
17726;DHT22;8983;53.156;17.960;2023-07-13T02:26:52;19.60;99.90
17726;DHT22;8983;53.156;17.960;2023-07-13T02:29:21;19.60;99.90
17726;DHT22;8983;53.156;17.960;2023-07-13T02:31:49;19.60;99.90
17726;DHT22;8983;53.156;17.960;2023-07-13T02:34:17;19.60;99.90
17726;DHT22;8983;53.156;17.960;2023-07-13T02:36:46;19.60;99.90
17726;DHT22;8983;53.156;17.960;2023-07-13T02:39:14;19.60;99.90
17726;DHT22;8983;53.156;17.960;2023-07-13T02:41:42;19.60;99.90
17726;DHT22;8983;53.156;17.960;2023-07-13T02:44:12;19.60;99.90
17726;DHT22;8983;53.156;17.960;2023-07-13T02:46:42;19.60;99.90
17726;DHT22;8983;53.156;17.960;2023-07-13T02:49:10;19.60;99.90
17726;DHT22;8983;53.156;17.960;2023-07-13T02:51:38;19.50;99.90
17726;DHT22;8983;53.156;17.960;2023-07-13T02:54:07;19.50;99.90
17726;DHT22;8983;53.156;17.960;2023-07-13T02:56:35;19.50;99.90
17726;DHT22;8983;53.156;17.960;2023-07-13T02:59:05;19.50;99.90
17726;DHT22;8983;53.156;17.960;2023-07-13T03:01:33;19.40;99.90
17726;DHT22;8983;53.156;17.960;2023-07-13T03:04:04;19.40;99.90
17726;DHT22;8983;53.156;17.960;2023-07-13T03:06:33;19.40;99.90
17726;DHT22;8983;53.156;17.960;2023-07-13T03:09:01;19.40;99.90
17726;DHT22;8983;53.156;17.960;2023-07-13T03:11:30;19.30;99.90
17726;DHT22;8983;53.156;17.960;2023-07-13T03:13:59;19.30;99.90
17726;DHT22;8983;53.156;17.960;2023-07-13T03:16:27;19.30;99.90
17726;DHT22;8983;53.156;17.960;2023-07-13T03:18:55;19.30;99.90
17726;DHT22;8983;53.156;17.960;2023-07-13T03:21:24;19.30;99.90
17726;DHT22;8983;53.156;17.960;2023-07-13T03:23:52;19.20;99.90
17726;DHT22;8983;53.156;17.960;2023-07-13T03:26:21;19.20;99.90
17726;DHT22;8983;53.156;17.960;2023-07-13T03:28:49;19.20;99.90
17726;DHT22;8983;53.156;17.960;2023-07-13T03:31:19;19.20;99.90
17726;DHT22;8983;53.156;17.960;2023-07-13T03:33:48;19.20;99.90
17726;DHT22;8983;53.156;17.960;2023-07-13T03:36:18;19.20;99.90
17726;DHT22;8983;53.156;17.960;2023-07-13T03:38:50;19.20;99.90
17726;DHT22;8983;53.156;17.960;2023-07-13T03:41:19;19.20;99.90
17726;DHT22;8983;53.156;17.960;2023-07-13T03:43:47;19.20;99.90
17726;DHT22;8983;53.156;17.960;2023-07-13T03:46:15;19.20;99.90
17726;DHT22;8983;53.156;17.960;2023-07-13T03:48:45;19.20;99.90
17726;DHT22;8983;53.156;17.960;2023-07-13T03:51:15;19.20;99.90
17726;DHT22;8983;53.156;17.960;2023-07-13T03:53:45;19.20;99.90
17726;DHT22;8983;53.156;17.960;2023-07-13T03:56:16;19.20;99.90
17726;DHT22;8983;53.156;17.960;2023-07-13T03:58:46;19.00;99.90
17726;DHT22;8983;53.156;17.960;2023-07-13T04:01:16;19.10;99.90
17726;DHT22;8983;53.156;17.960;2023-07-13T04:03:45;19.10;99.90
17726;DHT22;8983;53.156;17.960;2023-07-13T04:06:16;19.10;99.90
17726;DHT22;8983;53.156;17.960;2023-07-13T04:08:49;19.20;99.90
17726;DHT22;8983;53.156;17.960;2023-07-13T04:11:20;19.20;99.90
17726;DHT22;8983;53.156;17.960;2023-07-13T04:13:50;19.20;99.90
17726;DHT22;8983;53.156;17.960;2023-07-13T04:16:19;19.20;99.90
17726;DHT22;8983;53.156;17.960;2023-07-13T04:18:48;19.10;99.90
17726;DHT22;8983;53.156;17.960;2023-07-13T04:21:16;19.30;99.90
17726;DHT22;8983;53.156;17.960;2023-07-13T04:23:44;19.20;99.90
17726;DHT22;8983;53.156;17.960;2023-07-13T04:26:13;19.30;99.90
17726;DHT22;8983;53.156;17.960;2023-07-13T04:28:42;19.30;99.90
17726;DHT22;8983;53.156;17.960;2023-07-13T04:31:10;19.30;99.90
17726;DHT22;8983;53.156;17.960;2023-07-13T04:33:39;19.30;99.90
17726;DHT22;8983;53.156;17.960;2023-07-13T04:36:08;19.30;99.90
17726;DHT22;8983;53.156;17.960;2023-07-13T04:38:37;19.30;99.90
17726;DHT22;8983;53.156;17.960;2023-07-13T04:41:06;19.40;99.90
17726;DHT22;8983;53.156;17.960;2023-07-13T04:43:35;19.50;99.90
17726;DHT22;8983;53.156;17.960;2023-07-13T04:46:06;19.40;99.90
17726;DHT22;8983;53.156;17.960;2023-07-13T04:48:35;19.40;99.90
17726;DHT22;8983;53.156;17.960;2023-07-13T04:51:04;19.40;99.90
17726;DHT22;8983;53.156;17.960;2023-07-13T04:53:32;19.40;99.90
17726;DHT22;8983;53.156;17.960;2023-07-13T04:56:02;19.40;99.90
17726;DHT22;8983;53.156;17.960;2023-07-13T04:58:30;19.50;99.90
17726;DHT22;8983;53.156;17.960;2023-07-13T05:01:02;19.60;99.90
17726;DHT22;8983;53.156;17.960;2023-07-13T05:03:32;19.70;99.90
17726;DHT22;8983;53.156;17.960;2023-07-13T05:06:03;19.90;99.90
17726;DHT22;8983;53.156;17.960;2023-07-13T05:08:32;19.90;99.90
17726;DHT22;8983;53.156;17.960;2023-07-13T05:11:00;20.00;99.90
17726;DHT22;8983;53.156;17.960;2023-07-13T05:13:29;20.10;99.90
17726;DHT22;8983;53.156;17.960;2023-07-13T05:15:58;20.10;99.90
17726;DHT22;8983;53.156;17.960;2023-07-13T05:18:28;20.00;99.90
17726;DHT22;8983;53.156;17.960;2023-07-13T05:21:02;20.00;99.90
17726;DHT22;8983;53.156;17.960;2023-07-13T05:23:32;20.00;99.90
17726;DHT22;8983;53.156;17.960;2023-07-13T05:26:01;20.00;99.90
17726;DHT22;8983;53.156;17.960;2023-07-13T05:28:35;20.10;99.90
17726;DHT22;8983;53.156;17.960;2023-07-13T05:31:03;20.20;99.90
17726;DHT22;8983;53.156;17.960;2023-07-13T05:33:31;20.30;99.90
17726;DHT22;8983;53.156;17.960;2023-07-13T05:36:01;20.30;99.90
17726;DHT22;8983;53.156;17.960;2023-07-13T05:38:29;20.40;99.90
17726;DHT22;8983;53.156;17.960;2023-07-13T05:40:57;20.50;99.90
17726;DHT22;8983;53.156;17.960;2023-07-13T05:43:27;20.40;99.90
17726;DHT22;8983;53.156;17.960;2023-07-13T05:45:56;20.40;99.90
17726;DHT22;8983;53.156;17.960;2023-07-13T05:48:25;20.40;99.90
17726;DHT22;8983;53.156;17.960;2023-07-13T05:50:53;20.40;99.90
17726;DHT22;8983;53.156;17.960;2023-07-13T05:53:22;20.50;99.90
17726;DHT22;8983;53.156;17.960;2023-07-13T05:55:51;20.50;99.90
17726;DHT22;8983;53.156;17.960;2023-07-13T05:58:21;20.50;99.90
17726;DHT22;8983;53.156;17.960;2023-07-13T06:00:59;20.50;99.90
17726;DHT22;8983;53.156;17.960;2023-07-13T06:03:28;20.60;99.90
17726;DHT22;8983;53.156;17.960;2023-07-13T06:05:57;20.50;99.90
17726;DHT22;8983;53.156;17.960;2023-07-13T06:08:28;20.50;99.90
17726;DHT22;8983;53.156;17.960;2023-07-13T06:11:02;20.60;99.90
17726;DHT22;8983;53.156;17.960;2023-07-13T06:13:30;20.60;99.90
17726;DHT22;8983;53.156;17.960;2023-07-13T06:15:59;20.60;99.90
17726;DHT22;8983;53.156;17.960;2023-07-13T06:18:27;20.60;99.90
17726;DHT22;8983;53.156;17.960;2023-07-13T06:20:55;20.60;99.90
17726;DHT22;8983;53.156;17.960;2023-07-13T06:23:23;20.60;99.90
17726;DHT22;8983;53.156;17.960;2023-07-13T06:25:52;20.60;99.90
17726;DHT22;8983;53.156;17.960;2023-07-13T06:28:20;20.70;99.90
17726;DHT22;8983;53.156;17.960;2023-07-13T06:30:48;20.70;99.90
17726;DHT22;8983;53.156;17.960;2023-07-13T06:33:17;20.70;99.90
17726;DHT22;8983;53.156;17.960;2023-07-13T06:35:45;20.80;99.90
17726;DHT22;8983;53.156;17.960;2023-07-13T06:38:13;20.80;99.90
17726;DHT22;8983;53.156;17.960;2023-07-13T06:40:41;20.90;99.90
17726;DHT22;8983;53.156;17.960;2023-07-13T06:43:11;20.90;99.90
17726;DHT22;8983;53.156;17.960;2023-07-13T06:45:43;21.00;99.90
17726;DHT22;8983;53.156;17.960;2023-07-13T06:48:12;21.00;99.90
17726;DHT22;8983;53.156;17.960;2023-07-13T06:50:41;21.10;99.90
17726;DHT22;8983;53.156;17.960;2023-07-13T06:53:10;21.20;99.90
17726;DHT22;8983;53.156;17.960;2023-07-13T06:55:38;21.20;99.90
17726;DHT22;8983;53.156;17.960;2023-07-13T06:58:07;21.30;99.90
17726;DHT22;8983;53.156;17.960;2023-07-13T07:00:36;21.40;99.90
17726;DHT22;8983;53.156;17.960;2023-07-13T07:03:07;21.50;99.90
17726;DHT22;8983;53.156;17.960;2023-07-13T07:05:35;21.60;99.90
17726;DHT22;8983;53.156;17.960;2023-07-13T07:08:04;21.70;99.90
17726;DHT22;8983;53.156;17.960;2023-07-13T07:10:33;21.80;99.90
17726;DHT22;8983;53.156;17.960;2023-07-13T07:13:01;21.90;99.90
17726;DHT22;8983;53.156;17.960;2023-07-13T07:15:30;21.90;99.90
17726;DHT22;8983;53.156;17.960;2023-07-13T07:17:59;22.00;99.90
17726;DHT22;8983;53.156;17.960;2023-07-13T07:20:27;22.10;99.90
17726;DHT22;8983;53.156;17.960;2023-07-13T07:22:57;22.20;99.90
17726;DHT22;8983;53.156;17.960;2023-07-13T07:25:25;22.20;99.90
17726;DHT22;8983;53.156;17.960;2023-07-13T07:27:53;22.20;99.90
17726;DHT22;8983;53.156;17.960;2023-07-13T07:30:24;22.30;99.90
17726;DHT22;8983;53.156;17.960;2023-07-13T07:32:55;22.30;99.90
17726;DHT22;8983;53.156;17.960;2023-07-13T07:35:26;22.40;99.90
17726;DHT22;8983;53.156;17.960;2023-07-13T07:37:58;22.50;99.90
17726;DHT22;8983;53.156;17.960;2023-07-13T07:40:26;22.60;99.90
17726;DHT22;8983;53.156;17.960;2023-07-13T07:42:57;22.60;99.90
17726;DHT22;8983;53.156;17.960;2023-07-13T07:45:26;22.70;99.90
17726;DHT22;8983;53.156;17.960;2023-07-13T07:47:54;22.70;99.90
17726;DHT22;8983;53.156;17.960;2023-07-13T07:50:27;22.70;99.90
17726;DHT22;8983;53.156;17.960;2023-07-13T07:52:56;22.70;99.90
17726;DHT22;8983;53.156;17.960;2023-07-13T07:55:24;22.70;99.90
17726;DHT22;8983;53.156;17.960;2023-07-13T07:57:57;22.80;99.90
17726;DHT22;8983;53.156;17.960;2023-07-13T08:00:28;22.80;99.90
17726;DHT22;8983;53.156;17.960;2023-07-13T08:03:11;22.80;99.90
17726;DHT22;8983;53.156;17.960;2023-07-13T08:05:43;22.90;99.90
17726;DHT22;8983;53.156;17.960;2023-07-13T08:08:31;22.80;99.90
17726;DHT22;8983;53.156;17.960;2023-07-13T08:11:02;22.80;99.90
17726;DHT22;8983;53.156;17.960;2023-07-13T08:13:50;22.80;99.90
17726;DHT22;8983;53.156;17.960;2023-07-13T08:16:21;22.80;99.90
17726;DHT22;8983;53.156;17.960;2023-07-13T08:18:51;22.80;99.90
17726;DHT22;8983;53.156;17.960;2023-07-13T08:21:20;22.90;99.90
17726;DHT22;8983;53.156;17.960;2023-07-13T08:23:49;23.00;99.90
17726;DHT22;8983;53.156;17.960;2023-07-13T08:26:17;23.10;99.90
17726;DHT22;8983;53.156;17.960;2023-07-13T08:28:45;23.30;99.90
17726;DHT22;8983;53.156;17.960;2023-07-13T08:31:13;23.30;99.90
17726;DHT22;8983;53.156;17.960;2023-07-13T08:33:42;23.50;99.90
17726;DHT22;8983;53.156;17.960;2023-07-13T08:36:10;23.60;99.90
17726;DHT22;8983;53.156;17.960;2023-07-13T08:38:39;23.90;99.90
17726;DHT22;8983;53.156;17.960;2023-07-13T08:41:13;23.90;99.90
17726;DHT22;8983;53.156;17.960;2023-07-13T08:43:44;24.00;99.90
17726;DHT22;8983;53.156;17.960;2023-07-13T08:46:15;24.10;99.90
17726;DHT22;8983;53.156;17.960;2023-07-13T08:48:48;24.00;99.90
17726;DHT22;8983;53.156;17.960;2023-07-13T08:51:26;23.80;99.90
17726;DHT22;8983;53.156;17.960;2023-07-13T08:54:01;23.90;99.90
17726;DHT22;8983;53.156;17.960;2023-07-13T08:56:31;23.90;99.90
17726;DHT22;8983;53.156;17.960;2023-07-13T08:59:03;23.80;99.90
17726;DHT22;8983;53.156;17.960;2023-07-13T09:04:37;23.70;99.90
17726;DHT22;8983;53.156;17.960;2023-07-13T09:07:14;23.70;99.90
17726;DHT22;8983;53.156;17.960;2023-07-13T09:09:54;23.80;99.90
17726;DHT22;8983;53.156;17.960;2023-07-13T09:12:27;24.00;99.90
17726;DHT22;8983;53.156;17.960;2023-07-13T09:14:59;24.10;99.90
17726;DHT22;8983;53.156;17.960;2023-07-13T09:17:35;24.10;99.90
17726;DHT22;8983;53.156;17.960;2023-07-13T09:20:13;24.20;99.90
17726;DHT22;8983;53.156;17.960;2023-07-13T09:22:44;24.20;99.90
17726;DHT22;8983;53.156;17.960;2023-07-13T09:25:23;24.30;99.90
17726;DHT22;8983;53.156;17.960;2023-07-13T09:27:57;24.40;99.90
17726;DHT22;8983;53.156;17.960;2023-07-13T09:30:33;24.40;99.90
17726;DHT22;8983;53.156;17.960;2023-07-13T09:33:01;24.50;99.90
17726;DHT22;8983;53.156;17.960;2023-07-13T09:35:31;24.50;99.90
17726;DHT22;8983;53.156;17.960;2023-07-13T09:38:04;24.50;99.90
17726;DHT22;8983;53.156;17.960;2023-07-13T09:40:47;24.60;99.90
17726;DHT22;8983;53.156;17.960;2023-07-13T09:43:20;24.70;99.90
17726;DHT22;8983;53.156;17.960;2023-07-13T09:45:49;24.70;99.90
17726;DHT22;8983;53.156;17.960;2023-07-13T09:48:17;24.90;99.90
17726;DHT22;8983;53.156;17.960;2023-07-13T09:50:46;24.90;99.90
17726;DHT22;8983;53.156;17.960;2023-07-13T09:53:16;25.00;99.90
17726;DHT22;8983;53.156;17.960;2023-07-13T09:55:47;25.10;99.90
17726;DHT22;8983;53.156;17.960;2023-07-13T09:58:20;25.20;99.90
17726;DHT22;8983;53.156;17.960;2023-07-13T10:00:57;25.20;99.90
17726;DHT22;8983;53.156;17.960;2023-07-13T10:03:27;25.30;99.70
17726;DHT22;8983;53.156;17.960;2023-07-13T10:06:03;25.20;99.10
17726;DHT22;8983;53.156;17.960;2023-07-13T10:08:35;25.20;97.70
17726;DHT22;8983;53.156;17.960;2023-07-13T10:11:11;25.20;97.20
17726;DHT22;8983;53.156;17.960;2023-07-13T10:13:42;25.20;96.40
17726;DHT22;8983;53.156;17.960;2023-07-13T10:16:10;25.20;95.90
17726;DHT22;8983;53.156;17.960;2023-07-13T10:18:43;25.40;95.50
17726;DHT22;8983;53.156;17.960;2023-07-13T10:21:15;25.50;95.10
17726;DHT22;8983;53.156;17.960;2023-07-13T10:23:50;25.60;94.50
17726;DHT22;8983;53.156;17.960;2023-07-13T10:26:23;25.60;93.70
17726;DHT22;8983;53.156;17.960;2023-07-13T10:28:55;25.70;93.30
17726;DHT22;8983;53.156;17.960;2023-07-13T10:31:24;25.70;92.90
17726;DHT22;8983;53.156;17.960;2023-07-13T10:33:53;25.80;92.10
17726;DHT22;8983;53.156;17.960;2023-07-13T10:36:29;26.00;91.40
17726;DHT22;8983;53.156;17.960;2023-07-13T10:39:01;26.10;91.00
17726;DHT22;8983;53.156;17.960;2023-07-13T10:41:34;26.20;90.30
17726;DHT22;8983;53.156;17.960;2023-07-13T10:44:04;26.20;89.10
17726;DHT22;8983;53.156;17.960;2023-07-13T10:46:37;26.20;88.40
17726;DHT22;8983;53.156;17.960;2023-07-13T10:49:07;26.20;88.20
17726;DHT22;8983;53.156;17.960;2023-07-13T10:51:36;26.20;86.40
17726;DHT22;8983;53.156;17.960;2023-07-13T10:54:14;26.20;85.10
17726;DHT22;8983;53.156;17.960;2023-07-13T10:56:50;26.20;83.10
17726;DHT22;8983;53.156;17.960;2023-07-13T10:59:24;26.20;83.10
17726;DHT22;8983;53.156;17.960;2023-07-13T11:01:58;26.20;86.20
17726;DHT22;8983;53.156;17.960;2023-07-13T11:04:27;26.30;89.40
17726;DHT22;8983;53.156;17.960;2023-07-13T11:06:59;26.40;88.10
17726;DHT22;8983;53.156;17.960;2023-07-13T11:09:39;26.40;86.10
17726;DHT22;8983;53.156;17.960;2023-07-13T11:12:26;26.60;85.10
17726;DHT22;8983;53.156;17.960;2023-07-13T11:15:04;26.90;84.80
17726;DHT22;8983;53.156;17.960;2023-07-13T11:17:37;27.50;83.50
17726;DHT22;8983;53.156;17.960;2023-07-13T11:20:21;28.00;82.60
17726;DHT22;8983;53.156;17.960;2023-07-13T11:22:52;28.30;80.70
17726;DHT22;8983;53.156;17.960;2023-07-13T11:25:25;28.70;79.00
17726;DHT22;8983;53.156;17.960;2023-07-13T11:28:25;29.00;77.10
17726;DHT22;8983;53.156;17.960;2023-07-13T11:31:13;29.30;75.10
17726;DHT22;8983;53.156;17.960;2023-07-13T11:33:57;29.40;72.70
17726;DHT22;8983;53.156;17.960;2023-07-13T11:36:31;29.10;72.30
17726;DHT22;8983;53.156;17.960;2023-07-13T11:39:10;28.70;72.70
17726;DHT22;8983;53.156;17.960;2023-07-13T11:41:44;28.30;73.30
17726;DHT22;8983;53.156;17.960;2023-07-13T11:44:17;28.00;74.50
17726;DHT22;8983;53.156;17.960;2023-07-13T11:46:47;27.80;75.10
17726;DHT22;8983;53.156;17.960;2023-07-13T11:49:19;27.80;75.20
17726;DHT22;8983;53.156;17.960;2023-07-13T11:51:51;28.10;74.50
17726;DHT22;8983;53.156;17.960;2023-07-13T11:54:27;28.40;73.40
17726;DHT22;8983;53.156;17.960;2023-07-13T11:56:59;28.60;72.70
17726;DHT22;8983;53.156;17.960;2023-07-13T11:59:31;28.80;72.40
17726;DHT22;8983;53.156;17.960;2023-07-13T12:02:00;29.10;72.40
17726;DHT22;8983;53.156;17.960;2023-07-13T12:04:31;29.30;72.00
17726;DHT22;8983;53.156;17.960;2023-07-13T12:07:05;29.10;71.20
17726;DHT22;8983;53.156;17.960;2023-07-13T12:09:33;28.80;71.40
17726;DHT22;8983;53.156;17.960;2023-07-13T12:12:08;28.70;72.60
17726;DHT22;8983;53.156;17.960;2023-07-13T12:14:39;28.70;72.60
17726;DHT22;8983;53.156;17.960;2023-07-13T12:17:17;28.90;71.60
17726;DHT22;8983;53.156;17.960;2023-07-13T12:19:47;29.00;70.10
17726;DHT22;8983;53.156;17.960;2023-07-13T12:22:17;28.90;69.60
17726;DHT22;8983;53.156;17.960;2023-07-13T12:24:47;28.80;69.40
17726;DHT22;8983;53.156;17.960;2023-07-13T12:27:19;28.80;69.70
17726;DHT22;8983;53.156;17.960;2023-07-13T12:29:52;28.80;69.70
17726;DHT22;8983;53.156;17.960;2023-07-13T12:32:21;28.80;70.10
17726;DHT22;8983;53.156;17.960;2023-07-13T12:34:54;29.00;70.00
17726;DHT22;8983;53.156;17.960;2023-07-13T12:37:23;29.40;69.60
17726;DHT22;8983;53.156;17.960;2023-07-13T12:39:52;29.90;68.70
17726;DHT22;8983;53.156;17.960;2023-07-13T12:42:23;30.60;67.30
17726;DHT22;8983;53.156;17.960;2023-07-13T12:44:57;31.10;65.20
17726;DHT22;8983;53.156;17.960;2023-07-13T12:47:27;31.10;64.10
17726;DHT22;8983;53.156;17.960;2023-07-13T12:49:57;31.20;63.30
17726;DHT22;8983;53.156;17.960;2023-07-13T12:52:29;31.10;62.60
17726;DHT22;8983;53.156;17.960;2023-07-13T12:55:03;30.80;62.50
17726;DHT22;8983;53.156;17.960;2023-07-13T12:57:38;30.40;63.00
17726;DHT22;8983;53.156;17.960;2023-07-13T13:00:24;30.00;63.20
17726;DHT22;8983;53.156;17.960;2023-07-13T13:02:53;29.70;63.20
17726;DHT22;8983;53.156;17.960;2023-07-13T13:05:42;29.40;63.70
17726;DHT22;8983;53.156;17.960;2023-07-13T13:08:12;29.30;64.00
17726;DHT22;8983;53.156;17.960;2023-07-13T13:10:40;29.10;63.80
17726;DHT22;8983;53.156;17.960;2023-07-13T13:13:08;28.80;63.80
17726;DHT22;8983;53.156;17.960;2023-07-13T13:15:38;28.70;64.40
17726;DHT22;8983;53.156;17.960;2023-07-13T13:18:15;28.60;64.30
17726;DHT22;8983;53.156;17.960;2023-07-13T13:20:43;28.40;63.80
17726;DHT22;8983;53.156;17.960;2023-07-13T13:23:13;28.30;64.90
17726;DHT22;8983;53.156;17.960;2023-07-13T13:25:45;28.20;64.30
17726;DHT22;8983;53.156;17.960;2023-07-13T13:28:15;28.00;64.50
17726;DHT22;8983;53.156;17.960;2023-07-13T13:30:47;27.90;64.70
17726;DHT22;8983;53.156;17.960;2023-07-13T13:33:18;27.90;65.00
17726;DHT22;8983;53.156;17.960;2023-07-13T13:35:47;28.10;64.80
17726;DHT22;8983;53.156;17.960;2023-07-13T13:38:18;28.80;63.70
17726;DHT22;8983;53.156;17.960;2023-07-13T13:40:47;29.40;61.30
17726;DHT22;8983;53.156;17.960;2023-07-13T13:43:15;29.70;59.90
17726;DHT22;8983;53.156;17.960;2023-07-13T13:45:46;30.10;59.60
17726;DHT22;8983;53.156;17.960;2023-07-13T13:48:16;30.40;58.80
17726;DHT22;8983;53.156;17.960;2023-07-13T13:50:46;30.90;58.80
17726;DHT22;8983;53.156;17.960;2023-07-13T13:53:14;31.60;58.30
17726;DHT22;8983;53.156;17.960;2023-07-13T13:55:43;32.20;57.30
17726;DHT22;8983;53.156;17.960;2023-07-13T13:58:11;32.70;56.50
17726;DHT22;8983;53.156;17.960;2023-07-13T14:00:39;33.00;55.60
17726;DHT22;8983;53.156;17.960;2023-07-13T14:03:14;33.10;54.40
17726;DHT22;8983;53.156;17.960;2023-07-13T14:05:42;33.00;53.50
17726;DHT22;8983;53.156;17.960;2023-07-13T14:08:13;32.90;52.90
17726;DHT22;8983;53.156;17.960;2023-07-13T14:10:41;32.90;52.50
17726;DHT22;8983;53.156;17.960;2023-07-13T14:13:16;32.60;52.40
17726;DHT22;8983;53.156;17.960;2023-07-13T14:15:45;32.00;52.70
17726;DHT22;8983;53.156;17.960;2023-07-13T14:18:15;31.50;53.30
17726;DHT22;8983;53.156;17.960;2023-07-13T14:20:45;31.40;53.80
17726;DHT22;8983;53.156;17.960;2023-07-13T14:23:14;31.70;53.40
17726;DHT22;8983;53.156;17.960;2023-07-13T14:25:43;32.30;52.70
17726;DHT22;8983;53.156;17.960;2023-07-13T14:28:21;32.90;52.10
17726;DHT22;8983;53.156;17.960;2023-07-13T14:30:50;33.30;50.40
17726;DHT22;8983;53.156;17.960;2023-07-13T14:33:20;33.40;49.80
17726;DHT22;8983;53.156;17.960;2023-07-13T14:35:49;33.70;49.60
17726;DHT22;8983;53.156;17.960;2023-07-13T14:38:20;34.00;49.00
17726;DHT22;8983;53.156;17.960;2023-07-13T14:40:48;34.20;48.50
17726;DHT22;8983;53.156;17.960;2023-07-13T14:43:17;34.30;48.40
17726;DHT22;8983;53.156;17.960;2023-07-13T14:45:47;34.30;48.30
17726;DHT22;8983;53.156;17.960;2023-07-13T14:48:18;33.90;48.20
17726;DHT22;8983;53.156;17.960;2023-07-13T14:50:53;33.60;48.20
17726;DHT22;8983;53.156;17.960;2023-07-13T14:53:21;33.40;48.00
17726;DHT22;8983;53.156;17.960;2023-07-13T14:55:50;33.30;47.80
17726;DHT22;8983;53.156;17.960;2023-07-13T14:58:18;33.10;47.70
17726;DHT22;8983;53.156;17.960;2023-07-13T15:00:47;33.10;47.60
17726;DHT22;8983;53.156;17.960;2023-07-13T15:03:20;33.30;47.40
17726;DHT22;8983;53.156;17.960;2023-07-13T15:05:51;33.60;47.10
17726;DHT22;8983;53.156;17.960;2023-07-13T15:08:19;33.60;46.90
17726;DHT22;8983;53.156;17.960;2023-07-13T15:10:48;33.60;46.80
17726;DHT22;8983;53.156;17.960;2023-07-13T15:13:17;33.60;46.50
17726;DHT22;8983;53.156;17.960;2023-07-13T15:15:47;33.70;46.00
17726;DHT22;8983;53.156;17.960;2023-07-13T15:18:17;33.90;45.70
17726;DHT22;8983;53.156;17.960;2023-07-13T15:20:47;34.20;45.20
17726;DHT22;8983;53.156;17.960;2023-07-13T15:23:17;34.30;44.80
17726;DHT22;8983;53.156;17.960;2023-07-13T15:25:45;34.40;44.40
17726;DHT22;8983;53.156;17.960;2023-07-13T15:28:14;34.50;44.30
17726;DHT22;8983;53.156;17.960;2023-07-13T15:30:44;34.50;44.20
17726;DHT22;8983;53.156;17.960;2023-07-13T15:33:15;34.50;44.20
17726;DHT22;8983;53.156;17.960;2023-07-13T15:35:44;34.70;44.30
17726;DHT22;8983;53.156;17.960;2023-07-13T15:38:15;34.80;44.30
17726;DHT22;8983;53.156;17.960;2023-07-13T15:40:45;34.90;44.50
17726;DHT22;8983;53.156;17.960;2023-07-13T15:43:15;35.00;44.50
17726;DHT22;8983;53.156;17.960;2023-07-13T15:45:43;35.00;44.40
17726;DHT22;8983;53.156;17.960;2023-07-13T15:48:15;35.00;44.30
17726;DHT22;8983;53.156;17.960;2023-07-13T15:50:46;35.10;44.10
17726;DHT22;8983;53.156;17.960;2023-07-13T15:53:18;35.20;44.20
17726;DHT22;8983;53.156;17.960;2023-07-13T15:55:49;35.40;44.30
17726;DHT22;8983;53.156;17.960;2023-07-13T15:58:18;35.50;43.70